Pagina principale
METAR-TAF:

METAR-TAF

Aeroporti :

Dübendorf, Svizzera

latitudine: 47-23-55N, longitudine: 8-38-53E, altezza: 448 m

Osservazione

Il bollettino è stato emesso 48 minuti fa, alle 12:50 UTC
Vento 6 kt da ovest/nord-ovest, variando fra ovest e nord-ovest
Temperature 12°C
Umidità 67%
Pressione 1018 hPa
Visibilità 10 km o più
Poco nuvoloso ad un'altezza di 2400 ft
Nuvoloso ad un'altezza di 5300 ft
Nuvoloso ad un'altezza di 8100 ft
pioggia debole

METAR: LSMD 191250Z AUTO 29006KT 260V320 9999NDV -RA FEW024 BKN053 BKN081 12/06 Q1018 RMK

Ora: 15:38 (13:38 UTC)


TAF: mancante

Osservazioni e previsioni meteorologiche di più di 4000 aeroporti (messaggi METAR e TAF).

Le stazioni disponibili sono rappresentate dai dischi gialli e rossi sulla carta.

Puntare il mouse per vedere il nome della stazione.

Clicca sopra per visualizzare le osservazioni e previsioni meteorologiche.

Per cambiare la mappa : fare clic sui pulsanti verdi con una croce nera per ingrandire, il pulsante verde con un trattino per diminuire, o sulla freccia verde per le mappe adiacenti.


METAR-TAF: